Time;durP1;ratioP1;P1;durP2;ratioP2;P2;SDS_P1;SDS_P2;PMS_P1;PMS_P2;Temp;Humidity;BMP_temperature;BMP_pressure;BME280_temperature;BME280_humidity;BME280_pressure;Samples;Min_cycle;Max_cycle;Signal;HPM_P1;HPM_P2
2021/08/08 00:00:26;;;;;;;5.82;3.50;;;15.50;96.20;;;;;;4952867;29;20039;-54
2021/08/08 00:02:52;;;;;;;6.32;3.42;;;15.50;96.30;;;;;;4933619;29;20043;-50
2021/08/08 00:05:18;;;;;;;7.95;3.42;;;15.50;96.20;;;;;;4938287;29;20044;-51
2021/08/08 00:07:43;;;;;;;7.50;3.40;;;15.50;96.30;;;;;;4941672;29;20035;-53
2021/08/08 00:10:12;;;;;;;9.07;3.25;;;15.50;96.20;;;;;;4939645;29;20040;-54
2021/08/08 00:12:38;;;;;;;7.90;3.40;;;15.50;96.10;;;;;;4947633;29;20051;-52
2021/08/08 00:15:06;;;;;;;7.75;3.35;;;15.50;96.10;;;;;;4951467;29;20051;-52
2021/08/08 00:17:35;;;;;;;4.97;3.35;;;15.50;96.10;;;;;;4903084;29;20154;-49
2021/08/08 00:20:06;;;;;;;7.60;3.25;;;15.40;96.20;;;;;;4930534;29;20050;-49
2021/08/08 00:22:33;;;;;;;5.43;2.90;;;15.50;96.20;;;;;;4950348;28;20043;-52
2021/08/08 00:25:01;;;;;;;5.88;2.95;;;15.50;96.20;;;;;;4958637;29;20043;-52
2021/08/08 00:27:26;;;;;;;5.25;3.00;;;15.40;96.10;;;;;;4953082;28;20443;-49
2021/08/08 00:29:52;;;;;;;7.55;2.78;;;15.40;96.10;;;;;;4952121;29;20039;-55
2021/08/08 00:32:18;;;;;;;7.38;3.30;;;15.50;96.20;;;;;;4961133;28;20051;-49
2021/08/08 00:34:44;;;;;;;5.38;2.83;;;15.40;96.10;;;;;;4961591;28;20043;-48
2021/08/08 00:37:10;;;;;;;4.03;2.78;;;15.40;96.10;;;;;;4959554;29;20106;-51
2021/08/08 00:39:36;;;;;;;6.07;2.90;;;15.50;96.20;;;;;;4958584;28;20059;-52
2021/08/08 00:42:02;;;;;;;6.78;3.25;;;15.50;96.20;;;;;;4965931;28;20065;-49
2021/08/08 00:44:28;;;;;;;6.63;3.30;;;15.50;96.10;;;;;;4959292;29;20046;-49
2021/08/08 00:46:54;;;;;;;5.72;2.90;;;15.50;96.20;;;;;;4948136;28;20047;-51
2021/08/08 00:49:20;;;;;;;9.52;3.38;;;15.50;96.20;;;;;;4956267;28;20419;-52
2021/08/08 00:51:49;;;;;;;6.00;2.92;;;15.50;96.20;;;;;;4939086;29;20035;-49
2021/08/08 00:54:15;;;;;;;7.10;3.30;;;15.50;96.30;;;;;;4929828;29;20098;-50
2021/08/08 00:56:45;;;;;;;7.07;2.92;;;15.50;96.30;;;;;;4934300;29;20040;-52
2021/08/08 00:59:10;;;;;;;5.68;3.10;;;15.50;96.30;;;;;;4950343;28;20071;-48
2021/08/08 01:01:41;;;;;;;5.78;2.80;;;15.50;96.40;;;;;;4960101;28;20050;-54
2021/08/08 01:04:10;;;;;;;5.57;2.65;;;15.50;96.50;;;;;;4947369;28;20035;-55
2021/08/08 01:06:52;;;;;;;7.38;3.20;;;15.50;96.50;;;;;;4944349;29;20051;-51
2021/08/08 01:09:21;;;;;;;6.68;3.55;;;15.50;96.50;;;;;;4956011;29;20070;-56
2021/08/08 01:11:48;;;;;;;8.25;3.50;;;15.50;96.50;;;;;;4952546;29;20047;-54
2021/08/08 01:14:15;;;;;;;6.03;3.63;;;15.50;96.60;;;;;;4952101;29;20114;-53
2021/08/08 01:16:42;;;;;;;9.45;3.97;;;15.50;96.80;;;;;;4945959;29;20071;-53
2021/08/08 01:19:10;;;;;;;5.63;3.80;;;15.50;96.70;;;;;;4946966;29;20129;-56
2021/08/08 01:21:37;;;;;;;7.07;4.18;;;15.50;96.70;;;;;;4905795;29;20051;-56
2021/08/08 01:24:04;;;;;;;6.60;4.32;;;15.50;96.80;;;;;;4954430;28;20039;-56
2021/08/08 01:26:32;;;;;;;6.32;3.97;;;15.60;96.90;;;;;;4957364;28;20105;-53
2021/08/08 01:28:59;;;;;;;6.10;3.92;;;15.50;97.00;;;;;;4952764;28;20032;-55
2021/08/08 01:31:24;;;;;;;7.72;4.45;;;15.50;96.80;;;;;;4969265;28;20114;-54
2021/08/08 01:33:51;;;;;;;7.32;4.10;;;15.50;96.80;;;;;;4971365;28;20114;-55
2021/08/08 01:36:18;;;;;;;7.25;4.55;;;15.50;96.90;;;;;;4949204;28;20432;-54
2021/08/08 01:38:52;;;;;;;6.28;4.70;;;15.50;96.90;;;;;;4947901;28;20087;-55
2021/08/08 01:41:20;;;;;;;8.68;5.10;;;15.50;96.90;;;;;;4949510;29;20070;-55
2021/08/08 01:43:49;;;;;;;7.80;4.80;;;15.60;96.90;;;;;;4938568;29;20062;-53
2021/08/08 01:46:16;;;;;;;7.18;5.00;;;15.60;97.00;;;;;;4952661;28;20047;-54
2021/08/08 01:48:45;;;;;;;9.82;5.07;;;15.60;97.00;;;;;;4953533;29;20046;-52
2021/08/08 01:51:12;;;;;;;8.35;5.13;;;15.60;97.00;;;;;;4943488;29;20169;-55
2021/08/08 01:53:42;;;;;;;8.70;5.53;;;15.60;97.00;;;;;;4955867;29;20106;-52
2021/08/08 01:56:11;;;;;;;;;;;15.60;97.00;;;;;;4904234;28;20499;-53
2021/08/08 01:58:38;;;;;;;6.90;5.07;;;15.60;97.20;;;;;;4962399;28;19925;-55
2021/08/08 02:01:03;;;;;;;8.05;5.50;;;15.60;97.10;;;;;;4947508;29;20483;-55
2021/08/08 02:03:33;;;;;;;9.55;5.65;;;15.70;97.20;;;;;;4954237;28;20123;-55
2021/08/08 02:05:59;;;;;;;10.30;6.10;;;15.70;97.10;;;;;;4954373;29;20035;-52
2021/08/08 02:08:25;;;;;;;8.35;5.85;;;15.70;97.10;;;;;;4950269;28;20094;-52
2021/08/08 02:10:51;;;;;;;9.13;6.22;;;15.70;97.20;;;;;;4943316;29;20062;-52
2021/08/08 02:13:16;;;;;;;8.43;5.68;;;15.70;97.20;;;;;;4941844;29;20522;-53
2021/08/08 02:15:42;;;;;;;8.23;5.68;;;15.70;97.20;;;;;;4948423;28;20043;-50
2021/08/08 02:18:08;;;;;;;13.23;6.47;;;15.70;97.30;;;;;;4922277;29;20090;-54
2021/08/08 02:20:34;;;;;;;8.52;6.43;;;15.70;97.30;;;;;;4949110;28;20076;-52
2021/08/08 02:23:01;;;;;;;9.43;5.70;;;15.70;97.30;;;;;;4932463;29;20059;-55
2021/08/08 02:25:26;;;;;;;9.23;6.15;;;15.70;97.30;;;;;;4943867;28;20101;-53
2021/08/08 02:27:52;;;;;;;8.95;6.20;;;15.70;97.30;;;;;;4955247;29;20798;-49
2021/08/08 02:30:20;;;;;;;10.07;6.97;;;15.70;97.40;;;;;;4932214;28;20500;-54
2021/08/08 02:32:46;;;;;;;10.43;6.90;;;15.70;97.30;;;;;;4938512;29;20055;-55
2021/08/08 02:35:12;;;;;;;8.68;7.15;;;15.70;97.30;;;;;;4940281;28;20051;-49
2021/08/08 02:37:38;;;;;;;10.15;7.50;;;15.70;97.30;;;;;;4954843;28;20146;-52
2021/08/08 02:40:07;;;;;;;9.93;7.07;;;15.60;97.30;;;;;;4953513;28;20047;-49
2021/08/08 02:42:33;;;;;;;10.25;7.70;;;15.60;97.30;;;;;;4931124;28;20074;-50
2021/08/08 02:44:59;;;;;;;12.88;8.40;;;15.60;97.40;;;;;;4960209;28;20416;-55
2021/08/08 02:47:27;;;;;;;12.63;8.45;;;15.60;97.40;;;;;;4947627;28;20042;-51
2021/08/08 02:49:53;;;;;;;11.25;7.65;;;15.70;97.40;;;;;;4958440;28;20047;-51
2021/08/08 02:52:18;;;;;;;10.25;8.25;;;15.70;97.60;;;;;;4952593;28;20133;-55
2021/08/08 02:54:45;;;;;;;12.82;8.30;;;15.70;97.50;;;;;;4947692;28;20114;-50
2021/08/08 02:57:11;;;;;;;11.48;8.85;;;15.70;97.50;;;;;;4934434;29;20090;-49
2021/08/08 02:59:37;;;;;;;11.45;8.88;;;15.70;97.50;;;;;;4952790;28;20101;-49
2021/08/08 03:02:03;;;;;;;11.77;8.07;;;15.70;97.50;;;;;;4945797;28;20046;-49
2021/08/08 03:04:28;;;;;;;13.15;8.65;;;15.70;97.50;;;;;;4948881;29;20054;-49
2021/08/08 03:06:58;;;;;;;12.52;9.10;;;15.70;97.50;;;;;;4951324;28;20432;-50
2021/08/08 03:09:24;;;;;;;15.23;9.57;;;15.70;97.60;;;;;;4936655;29;20046;-50
2021/08/08 03:11:50;;;;;;;16.33;8.65;;;15.70;97.70;;;;;;4945419;28;20102;-52
2021/08/08 03:14:18;;;;;;;12.35;9.65;;;15.70;97.60;;;;;;4941797;29;20050;-54
2021/08/08 03:16:46;;;;;;;17.23;9.27;;;15.70;97.60;;;;;;4927693;29;20074;-55
2021/08/08 03:19:12;;;;;;;13.73;8.57;;;15.70;97.60;;;;;;4949540;29;20576;-52
2021/08/08 03:21:39;;;;;;;14.07;8.90;;;15.70;97.70;;;;;;4947439;28;20504;-50
2021/08/08 03:24:05;;;;;;;12.45;8.73;;;15.70;97.60;;;;;;4947875;28;20040;-55
2021/08/08 03:26:32;;;;;;;13.80;8.85;;;15.70;97.60;;;;;;4924523;29;20044;-55
2021/08/08 03:29:00;;;;;;;13.35;8.68;;;15.70;97.60;;;;;;4946038;29;20040;-51
2021/08/08 03:31:30;;;;;;;13.85;9.55;;;15.70;97.60;;;;;;4932785;29;20039;-51
2021/08/08 03:33:56;;;;;;;16.08;9.40;;;15.70;97.60;;;;;;4940730;29;20090;-52
2021/08/08 03:36:22;;;;;;;15.60;9.30;;;15.70;97.60;;;;;;4942747;28;20080;-51
2021/08/08 03:38:49;;;;;;;12.95;9.23;;;15.70;97.50;;;;;;4948834;28;20039;-54
2021/08/08 03:41:15;;;;;;;17.50;9.48;;;15.80;97.50;;;;;;4952951;29;20044;-53
2021/08/08 03:43:41;;;;;;;11.65;9.80;;;15.70;97.50;;;;;;4955141;28;20070;-53
2021/08/08 03:46:06;;;;;;;16.23;9.63;;;15.70;97.50;;;;;;4955202;28;20103;-54
2021/08/08 03:48:32;;;;;;;14.48;9.57;;;15.80;97.60;;;;;;4940663;28;20407;-51
2021/08/08 03:51:00;;;;;;;15.63;9.73;;;15.70;97.50;;;;;;4949083;29;20051;-51
2021/08/08 03:53:26;;;;;;;15.15;9.23;;;15.70;97.50;;;;;;4920219;29;20492;-55
2021/08/08 03:55:52;;;;;;;12.25;9.38;;;15.70;97.50;;;;;;4952215;28;20043;-49
2021/08/08 03:58:18;;;;;;;13.63;8.57;;;15.70;97.60;;;;;;4953224;28;20043;-51
2021/08/08 04:00:43;;;;;;;13.07;10.07;;;15.70;97.60;;;;;;4919590;29;20051;-51
2021/08/08 04:03:09;;;;;;;15.77;8.60;;;15.70;97.60;;;;;;4934920;29;20040;-53
2021/08/08 04:05:35;;;;;;;10.70;8.00;;;15.70;97.60;;;;;;4949622;28;20409;-54
2021/08/08 04:08:03;;;;;;;11.07;8.55;;;15.70;97.60;;;;;;4936011;29;20035;-53
2021/08/08 04:10:29;;;;;;;11.15;7.93;;;15.70;97.60;;;;;;4940444;28;20489;-53
2021/08/08 04:15:27;;;;;;;7.63;6.35;;;15.70;97.60;;;;;;4952979;28;20047;-54
2021/08/08 04:17:53;;;;;;;7.45;6.10;;;15.70;97.60;;;;;;4955609;28;20039;-54
2021/08/08 04:20:19;;;;;;;9.45;6.22;;;15.70;97.70;;;;;;4960037;28;20134;-54
2021/08/08 04:22:44;;;;;;;9.50;5.85;;;15.70;97.60;;;;;;4953379;28;20043;-53
2021/08/08 04:25:11;;;;;;;7.88;5.65;;;15.70;97.60;;;;;;4950492;29;20047;-51
2021/08/08 04:27:36;;;;;;;8.15;5.63;;;15.70;97.70;;;;;;4948187;29;20049;-54
2021/08/08 04:30:05;;;;;;;7.47;5.18;;;15.70;97.70;;;;;;4951618;29;20043;-49
2021/08/08 04:32:31;;;;;;;7.40;5.40;;;15.70;97.70;;;;;;4952205;29;20118;-51
2021/08/08 04:34:57;;;;;;;7.68;5.03;;;15.70;97.70;;;;;;4965383;28;20137;-51
2021/08/08 04:37:22;;;;;;;11.65;5.25;;;15.70;97.80;;;;;;4944839;29;20067;-52
2021/08/08 04:39:49;;;;;;;7.97;4.60;;;15.70;97.80;;;;;;4950668;29;20070;-51
2021/08/08 04:42:16;;;;;;;12.38;5.63;;;15.70;97.80;;;;;;4952093;29;20484;-52
2021/08/08 04:44:42;;;;;;;11.52;4.97;;;15.70;97.80;;;;;;4950695;29;20075;-52
2021/08/08 04:47:07;;;;;;;9.18;5.18;;;15.60;98.00;;;;;;4934515;29;20074;-52
2021/08/08 04:49:33;;;;;;;9.75;5.28;;;15.60;98.00;;;;;;4951483;29;20047;-54
2021/08/08 04:51:59;;;;;;;10.55;5.20;;;15.60;98.30;;;;;;4948053;29;20051;-54
2021/08/08 04:54:25;;;;;;;7.10;5.00;;;15.60;98.20;;;;;;4951808;29;20035;-51
2021/08/08 04:56:51;;;;;;;9.88;6.25;;;15.60;98.20;;;;;;4935000;29;20039;-53
2021/08/08 04:59:16;;;;;;;9.68;5.93;;;15.60;98.30;;;;;;4947775;29;20420;-53
2021/08/08 05:01:42;;;;;;;17.42;5.43;;;15.60;98.40;;;;;;4949379;28;20077;-50
2021/08/08 05:04:07;;;;;;;14.80;6.05;;;15.60;98.40;;;;;;4949399;29;20047;-51
2021/08/08 05:06:34;;;;;;;9.82;5.50;;;15.60;98.50;;;;;;4951991;29;20415;-50
2021/08/08 05:09:04;;;;;;;9.13;5.70;;;15.60;98.50;;;;;;4953548;28;20071;-52
2021/08/08 05:11:31;;;;;;;9.27;5.70;;;15.60;98.60;;;;;;4955637;29;20044;-49
2021/08/08 05:13:58;;;;;;;8.02;5.38;;;15.60;98.70;;;;;;4945995;29;20040;-51
2021/08/08 05:16:24;;;;;;;8.68;5.85;;;15.60;98.80;;;;;;4952396;29;20471;-51
2021/08/08 05:18:49;;;;;;;12.40;6.35;;;15.60;98.80;;;;;;4950102;29;20047;-52
2021/08/08 05:21:15;;;;;;;11.30;6.40;;;15.60;98.80;;;;;;4945951;28;20047;-51
2021/08/08 05:23:42;;;;;;;10.57;6.65;;;15.60;98.80;;;;;;4946914;29;20051;-52
2021/08/08 05:26:07;;;;;;;14.13;7.32;;;15.70;98.80;;;;;;4945486;29;20427;-51
2021/08/08 05:28:33;;;;;;;11.52;6.47;;;15.70;98.80;;;;;;4955520;29;20046;-52
2021/08/08 05:30:59;;;;;;;14.70;7.70;;;15.70;98.70;;;;;;4944287;29;20056;-52
2021/08/08 05:33:24;;;;;;;16.80;8.52;;;15.70;98.70;;;;;;4951955;29;20043;-52
2021/08/08 05:35:52;;;;;;;16.05;10.02;;;15.70;98.70;;;;;;4955410;29;20043;-50
2021/08/08 05:38:18;;;;;;;20.73;10.38;;;15.70;98.70;;;;;;4954553;29;20051;-51
2021/08/08 05:40:44;;;;;;;17.70;10.38;;;15.70;98.60;;;;;;4954533;29;20047;-51
2021/08/08 05:43:10;;;;;;;25.70;12.13;;;15.70;98.60;;;;;;4942318;29;20409;-50
2021/08/08 05:45:35;;;;;;;22.40;13.10;;;15.60;98.50;;;;;;4948187;29;20039;-52
2021/08/08 05:48:02;;;;;;;20.85;11.27;;;15.60;98.50;;;;;;4948220;29;20487;-51
2021/08/08 05:50:28;;;;;;;24.95;12.65;;;15.60;98.50;;;;;;4954790;29;20039;-50
2021/08/08 05:52:54;;;;;;;28.75;12.63;;;15.60;98.40;;;;;;4954066;29;20415;-51
2021/08/08 05:55:20;;;;;;;21.80;12.02;;;15.70;98.50;;;;;;4954674;29;20385;-51
2021/08/08 05:57:47;;;;;;;29.92;12.40;;;15.60;98.50;;;;;;4954646;29;20039;-54
2021/08/08 06:00:13;;;;;;;25.63;12.52;;;15.70;98.50;;;;;;4954672;29;20110;-49
2021/08/08 06:02:38;;;;;;;25.42;12.43;;;15.60;98.40;;;;;;4954527;29;20039;-49
2021/08/08 06:05:08;;;;;;;25.45;12.65;;;15.60;98.40;;;;;;4954508;29;20046;-54
2021/08/08 06:07:33;;;;;;;27.02;13.18;;;15.70;98.30;;;;;;4952192;29;20039;-52
2021/08/08 06:10:03;;;;;;;22.55;11.38;;;15.60;98.30;;;;;;4954961;29;20047;-51
2021/08/08 06:12:28;;;;;;;28.42;12.15;;;15.70;98.60;;;;;;4954007;29;20081;-52
2021/08/08 06:14:54;;;;;;;21.55;11.95;;;15.70;98.30;;;;;;4956362;28;20062;-54
2021/08/08 06:17:20;;;;;;;22.60;11.48;;;15.70;98.30;;;;;;4954621;28;20135;-52
2021/08/08 06:19:45;;;;;;;20.67;10.77;;;15.70;98.30;;;;;;4953666;28;20118;-51
2021/08/08 06:22:13;;;;;;;20.98;10.30;;;15.70;98.50;;;;;;4953975;29;20050;-51
2021/08/08 06:24:40;;;;;;;22.20;9.73;;;15.80;98.20;;;;;;4947004;29;20039;-52
2021/08/08 06:27:05;;;;;;;22.00;10.32;;;15.90;98.10;;;;;;4954305;29;20035;-51
2021/08/08 06:29:31;;;;;;;19.48;10.38;;;15.90;98.00;;;;;;4953657;28;20043;-48
2021/08/08 06:31:57;;;;;;;21.00;10.20;;;15.80;97.90;;;;;;4954105;29;20097;-49
2021/08/08 06:34:22;;;;;;;21.95;10.63;;;15.80;97.80;;;;;;4954006;28;20167;-53
2021/08/08 06:36:49;;;;;;;18.17;9.93;;;15.90;97.80;;;;;;4953756;29;20039;-50
2021/08/08 06:39:15;;;;;;;19.48;9.88;;;15.80;97.80;;;;;;4953874;29;20040;-50
2021/08/08 06:41:41;;;;;;;24.00;9.60;;;15.90;97.90;;;;;;4953178;29;20051;-52
2021/08/08 06:44:08;;;;;;;17.90;9.05;;;15.90;97.90;;;;;;4953942;28;20043;-53
2021/08/08 06:46:34;;;;;;;19.50;9.70;;;15.90;97.80;;;;;;4954157;29;20046;-52
2021/08/08 06:48:59;;;;;;;17.33;8.80;;;15.90;97.80;;;;;;4953354;29;20035;-52
2021/08/08 06:51:25;;;;;;;20.20;9.55;;;15.90;97.80;;;;;;4953573;29;20043;-52
2021/08/08 06:53:50;;;;;;;19.08;9.23;;;16.00;97.70;;;;;;4953317;29;20101;-53
2021/08/08 06:56:16;;;;;;;16.52;9.70;;;16.00;97.70;;;;;;4948778;28;20071;-51
2021/08/08 06:58:42;;;;;;;20.02;8.73;;;16.00;97.60;;;;;;4951726;29;20049;-50
2021/08/08 07:01:07;;;;;;;21.27;9.23;;;16.00;97.60;;;;;;4952774;29;20602;-51
2021/08/08 07:03:33;;;;;;;23.88;9.27;;;16.00;97.30;;;;;;4951557;29;20082;-54
2021/08/08 07:05:58;;;;;;;21.85;9.52;;;16.00;97.30;;;;;;4953067;28;20490;-53
2021/08/08 07:08:24;;;;;;;21.50;10.05;;;16.00;97.40;;;;;;4953760;28;20039;-51
2021/08/08 07:10:49;;;;;;;19.77;9.95;;;16.00;97.40;;;;;;4953181;28;20093;-51
2021/08/08 07:13:15;;;;;;;20.02;9.40;;;16.10;97.50;;;;;;4951749;29;20055;-54
2021/08/08 07:15:41;;;;;;;20.65;8.82;;;16.10;97.40;;;;;;4955519;28;20451;-51
2021/08/08 07:18:06;;;;;;;21.95;9.50;;;16.20;97.40;;;;;;4953425;28;20043;-52
2021/08/08 07:20:32;;;;;;;17.95;8.88;;;16.20;97.30;;;;;;4955671;28;20035;-50
2021/08/08 07:22:57;;;;;;;21.77;8.85;;;16.30;97.10;;;;;;4952914;29;20066;-52
2021/08/08 07:25:24;;;;;;;16.92;8.30;;;16.30;97.00;;;;;;4953304;29;20099;-53
2021/08/08 07:27:49;;;;;;;20.05;8.60;;;16.30;96.90;;;;;;4951869;29;20039;-54
2021/08/08 07:30:15;;;;;;;18.80;8.65;;;16.30;96.90;;;;;;4953320;28;20047;-54
2021/08/08 07:32:41;;;;;;;20.98;8.98;;;16.30;96.90;;;;;;4952016;28;20051;-53
2021/08/08 07:35:07;;;;;;;14.88;7.60;;;16.30;96.70;;;;;;4955362;28;20042;-52
2021/08/08 07:37:32;;;;;;;19.30;8.13;;;16.30;96.70;;;;;;4959579;28;20422;-52
2021/08/08 07:39:58;;;;;;;22.45;8.43;;;16.30;96.60;;;;;;4958167;28;20035;-51
2021/08/08 07:42:24;;;;;;;18.38;7.65;;;16.30;96.60;;;;;;4947200;28;20055;-52
2021/08/08 07:44:49;;;;;;;21.30;6.90;;;16.30;96.40;;;;;;4959030;28;20102;-50
2021/08/08 07:47:16;;;;;;;20.27;7.93;;;16.30;96.40;;;;;;4953849;28;20126;-51
2021/08/08 07:49:42;;;;;;;17.23;6.97;;;16.40;96.50;;;;;;4942771;29;20099;-50
2021/08/08 07:52:08;;;;;;;15.32;7.00;;;16.40;96.40;;;;;;4952149;29;20078;-52
2021/08/08 07:54:34;;;;;;;17.52;7.15;;;16.40;96.40;;;;;;4952393;29;20554;-50
2021/08/08 07:57:00;;;;;;;13.15;7.05;;;16.40;96.40;;;;;;4953196;29;20054;-51
2021/08/08 07:59:25;;;;;;;16.30;6.40;;;16.50;96.20;;;;;;4952972;28;20043;-49
2021/08/08 08:01:51;;;;;;;12.13;5.43;;;16.50;96.10;;;;;;4951713;28;20035;-51
2021/08/08 08:04:19;;;;;;;12.43;5.32;;;16.50;96.10;;;;;;4952550;29;20122;-54
2021/08/08 08:06:46;;;;;;;14.27;5.60;;;16.50;95.70;;;;;;4957741;28;20101;-49
2021/08/08 08:09:11;;;;;;;13.05;5.28;;;16.50;95.40;;;;;;4934098;29;20130;-52
2021/08/08 08:11:41;;;;;;;14.68;5.13;;;16.50;95.50;;;;;;4951911;29;20126;-49
2021/08/08 08:14:07;;;;;;;10.93;5.00;;;16.50;95.50;;;;;;4948958;28;20035;-49
2021/08/08 08:16:33;;;;;;;10.93;5.47;;;16.50;95.30;;;;;;4940376;29;20047;-53
2021/08/08 08:18:59;;;;;;;14.23;5.22;;;16.40;95.20;;;;;;4936002;29;20043;-55
2021/08/08 08:21:25;;;;;;;10.02;5.22;;;16.40;95.00;;;;;;4936986;28;20055;-52
2021/08/08 08:23:50;;;;;;;13.23;5.60;;;16.40;95.30;;;;;;4940809;28;20076;-49
2021/08/08 08:26:16;;;;;;;14.00;5.90;;;16.40;95.50;;;;;;4947346;29;20050;-52
2021/08/08 08:28:41;;;;;;;14.65;5.97;;;16.40;95.70;;;;;;4952519;29;20467;-50
2021/08/08 08:31:09;;;;;;;17.98;5.88;;;16.40;95.60;;;;;;4951896;28;20455;-51
2021/08/08 08:33:35;;;;;;;12.80;6.05;;;16.40;95.40;;;;;;4935901;29;20414;-49
2021/08/08 08:36:00;;;;;;;16.80;6.00;;;16.40;95.30;;;;;;4949850;29;20035;-49
2021/08/08 08:38:26;;;;;;;16.45;6.78;;;16.30;95.40;;;;;;4950461;29;20040;-51
2021/08/08 08:40:54;;;;;;;14.55;6.63;;;16.30;95.50;;;;;;4933930;29;20047;-51
2021/08/08 08:43:24;;;;;;;18.92;7.65;;;16.20;95.50;;;;;;4954754;28;20122;-52
2021/08/08 08:45:51;;;;;;;22.58;8.43;;;16.20;95.90;;;;;;4946570;28;20087;-52
2021/08/08 08:48:20;;;;;;;19.13;8.98;;;16.10;96.00;;;;;;4942406;29;20051;-52
2021/08/08 08:50:53;;;;;;;20.85;8.60;;;16.10;96.30;;;;;;4941341;29;20043;-53
2021/08/08 08:53:22;;;;;;;20.42;8.73;;;16.10;96.50;;;;;;4953638;28;20615;-49
2021/08/08 08:55:47;;;;;;;26.13;9.85;;;16.10;96.70;;;;;;4946255;29;20039;-53
2021/08/08 08:58:13;;;;;;;21.30;9.98;;;16.10;96.70;;;;;;4954306;29;20055;-50
2021/08/08 09:00:41;;;;;;;24.77;10.50;;;16.20;96.90;;;;;;4953846;29;20047;-53
2021/08/08 09:03:06;;;;;;;21.58;8.90;;;16.30;97.10;;;;;;4937503;28;20050;-52
2021/08/08 09:05:32;;;;;;;21.35;9.13;;;16.40;97.00;;;;;;4956179;29;20051;-53
2021/08/08 09:07:57;;;;;;;17.45;8.85;;;16.50;96.90;;;;;;4956312;29;20042;-50
2021/08/08 09:10:24;;;;;;;24.40;9.27;;;16.70;96.90;;;;;;4938752;29;20075;-52
2021/08/08 09:12:58;;;;;;;23.27;8.13;;;16.90;96.80;;;;;;4951670;28;20407;-50
2021/08/08 09:15:35;;;;;;;23.27;8.23;;;17.00;96.40;;;;;;4954664;28;20105;-52
2021/08/08 09:18:27;;;;;;;18.25;7.05;;;17.20;95.90;;;;;;4948650;29;20085;-50
2021/08/08 09:20:52;;;;;;;23.15;8.13;;;17.40;95.50;;;;;;4951305;29;20156;-52
2021/08/08 09:23:18;;;;;;;23.98;7.10;;;17.60;95.40;;;;;;4938420;29;20067;-54
2021/08/08 09:25:51;;;;;;;22.52;6.25;;;17.70;94.90;;;;;;4955838;28;20134;-50
2021/08/08 09:28:17;;;;;;;22.52;6.50;;;17.90;94.20;;;;;;4945393;29;20048;-50
2021/08/08 09:30:43;;;;;;;20.73;6.65;;;18.00;93.60;;;;;;4952195;28;20102;-51
2021/08/08 09:33:10;;;;;;;18.08;6.45;;;18.00;93.20;;;;;;4954609;29;20488;-49
2021/08/08 09:35:39;;;;;;;16.02;5.57;;;18.10;93.00;;;;;;4950649;29;20051;-53
2021/08/08 09:38:07;;;;;;;21.45;6.05;;;18.20;93.00;;;;;;4955637;29;20110;-54
2021/08/08 09:40:36;;;;;;;19.55;5.80;;;18.30;92.90;;;;;;4945372;29;20130;-54
2021/08/08 09:43:06;;;;;;;19.33;5.70;;;18.40;92.40;;;;;;4941136;28;20612;-52
2021/08/08 09:45:37;;;;;;;19.23;5.70;;;18.40;92.30;;;;;;4944245;29;20070;-53
2021/08/08 09:48:04;;;;;;;21.38;6.18;;;18.40;92.10;;;;;;4942151;29;20457;-53
2021/08/08 09:50:32;;;;;;;23.17;6.22;;;18.50;91.80;;;;;;4939346;29;20067;-53
2021/08/08 09:53:03;;;;;;;16.13;5.35;;;18.50;91.50;;;;;;4938392;29;20114;-51
2021/08/08 09:55:31;;;;;;;13.63;5.45;;;18.50;91.70;;;;;;4934410;29;20054;-53
2021/08/08 09:57:58;;;;;;;14.90;5.47;;;18.40;91.20;;;;;;4939388;29;20047;-52
2021/08/08 10:00:35;;;;;;;15.68;5.13;;;18.30;91.20;;;;;;4936294;29;20134;-51
2021/08/08 10:03:05;;;;;;;14.10;4.70;;;18.30;91.10;;;;;;4938753;29;20269;-52
2021/08/08 10:05:38;;;;;;;17.02;4.65;;;18.20;91.20;;;;;;4943671;29;20059;-55
2021/08/08 10:08:15;;;;;;;17.13;5.10;;;18.20;91.30;;;;;;4938492;29;20123;-53
2021/08/08 10:10:43;;;;;;;21.73;5.30;;;18.10;90.90;;;;;;4938250;29;20055;-55
2021/08/08 10:13:27;;;;;;;17.13;5.72;;;18.10;91.10;;;;;;4942110;29;20573;-53
2021/08/08 10:15:53;;;;;;;15.55;5.30;;;18.00;91.50;;;;;;4945133;29;20054;-53
2021/08/08 10:18:23;;;;;;;13.50;4.82;;;18.10;91.30;;;;;;4942562;29;20044;-53
2021/08/08 10:20:50;;;;;;;13.23;4.80;;;18.20;91.40;;;;;;4946041;29;20051;-51
2021/08/08 10:23:17;;;;;;;17.27;5.20;;;18.30;91.40;;;;;;4940587;29;20039;-55
2021/08/08 10:25:48;;;;;;;15.75;5.15;;;18.30;91.00;;;;;;4944485;29;20043;-53
2021/08/08 10:28:15;;;;;;;15.80;5.05;;;18.30;90.60;;;;;;4946045;29;20083;-52
2021/08/08 10:30:42;;;;;;;18.63;5.00;;;18.30;90.60;;;;;;4943952;29;20055;-53
2021/08/08 10:33:08;;;;;;;17.15;5.30;;;18.30;90.40;;;;;;4937292;29;20055;-55
2021/08/08 10:35:39;;;;;;;17.67;5.88;;;18.30;90.60;;;;;;4938250;29;20031;-55
2021/08/08 10:38:05;;;;;;;17.77;5.30;;;18.30;90.30;;;;;;4940912;28;20046;-53
2021/08/08 10:40:32;;;;;;;16.20;5.07;;;18.20;90.20;;;;;;4939829;29;20515;-54
2021/08/08 10:42:59;;;;;;;14.65;4.72;;;18.20;90.20;;;;;;4941723;29;20035;-55
2021/08/08 10:45:27;;;;;;;19.35;5.72;;;18.20;90.20;;;;;;4949861;29;20035;-55
2021/08/08 10:48:04;;;;;;;13.40;4.97;;;18.20;90.10;;;;;;4945775;28;20055;-53
2021/08/08 10:50:47;;;;;;;12.73;4.13;;;18.20;90.10;;;;;;4948306;29;20069;-52
2021/08/08 10:53:32;;;;;;;18.88;5.00;;;18.30;89.40;;;;;;4945352;29;20051;-53
2021/08/08 10:56:05;;;;;;;15.93;4.88;;;18.30;88.70;;;;;;4951371;28;20046;-53
2021/08/08 10:58:36;;;;;;;18.85;4.70;;;18.30;88.50;;;;;;4951657;29;20138;-53
2021/08/08 11:01:15;;;;;;;12.93;4.82;;;18.20;88.70;;;;;;4952703;29;20043;-53
2021/08/08 11:04:00;;;;;;;24.25;4.82;;;18.20;89.00;;;;;;4950876;28;20051;-56
2021/08/08 11:06:29;;;;;;;11.73;4.30;;;18.10;89.50;;;;;;4952210;28;20039;-54
2021/08/08 11:08:57;;;;;;;16.20;4.40;;;18.20;88.80;;;;;;4952802;29;20392;-53
2021/08/08 11:11:33;;;;;;;13.40;3.97;;;18.20;88.30;;;;;;4942908;28;20051;-55
2021/08/08 11:14:13;;;;;;;15.00;4.20;;;18.20;87.60;;;;;;4945947;29;20070;-54
2021/08/08 11:16:40;;;;;;;9.93;3.80;;;18.20;87.20;;;;;;4945815;29;20037;-53
2021/08/08 11:19:06;;;;;;;10.55;3.95;;;18.30;86.40;;;;;;4951619;28;20043;-53
2021/08/08 11:21:32;;;;;;;9.55;3.42;;;18.40;86.60;;;;;;4952619;28;20197;-56
2021/08/08 11:24:01;;;;;;;11.85;3.78;;;18.70;85.70;;;;;;4951244;29;20047;-53
2021/08/08 11:26:27;;;;;;;14.57;4.15;;;18.80;84.20;;;;;;4948441;29;20430;-53
2021/08/08 11:29:02;;;;;;;10.20;3.65;;;18.80;83.30;;;;;;4938936;29;20153;-55
2021/08/08 11:31:38;;;;;;;12.88;3.55;;;18.80;83.70;;;;;;4937045;29;20127;-53
2021/08/08 11:34:09;;;;;;;11.80;3.90;;;18.80;83.10;;;;;;4939593;29;20099;-53
2021/08/08 11:36:42;;;;;;;10.27;3.70;;;18.80;82.80;;;;;;4924793;29;20496;-52
2021/08/08 11:39:12;;;;;;;12.43;4.07;;;18.80;82.20;;;;;;4939259;29;20054;-54
2021/08/08 11:41:39;;;;;;;10.05;3.38;;;18.70;80.70;;;;;;4935277;29;20043;-55
2021/08/08 11:44:06;;;;;;;8.90;3.45;;;18.80;81.80;;;;;;4938848;29;20470;-54
2021/08/08 11:46:32;;;;;;;10.65;3.50;;;18.90;81.60;;;;;;4933708;29;20035;-53
2021/08/08 11:48:58;;;;;;;12.63;3.70;;;19.10;81.50;;;;;;4941550;29;20063;-51
2021/08/08 11:51:24;;;;;;;11.88;3.47;;;19.10;80.00;;;;;;4942449;29;20043;-53
2021/08/08 11:53:54;;;;;;;14.02;3.90;;;19.30;79.50;;;;;;4951952;29;20035;-55
2021/08/08 11:56:28;;;;;;;10.48;3.00;;;19.40;79.80;;;;;;4953126;29;20047;-54
2021/08/08 11:58:55;;;;;;;9.50;3.55;;;19.40;79.30;;;;;;4953024;29;20043;-55
2021/08/08 12:01:25;;;;;;;8.52;3.05;;;19.30;78.10;;;;;;4951944;28;20519;-52
2021/08/08 12:04:03;;;;;;;12.13;3.65;;;19.30;76.80;;;;;;4952308;28;20416;-53
2021/08/08 12:06:29;;;;;;;9.52;3.20;;;19.20;78.00;;;;;;4948258;28;20044;-50
2021/08/08 12:08:55;;;;;;;9.18;3.10;;;19.30;77.90;;;;;;4941781;28;20455;-54
2021/08/08 12:11:21;;;;;;;16.45;3.75;;;19.30;78.50;;;;;;4942239;29;20040;-51
2021/08/08 12:14:00;;;;;;;11.23;3.63;;;19.40;78.80;;;;;;4938732;29;20074;-55
2021/08/08 12:16:35;;;;;;;12.43;3.85;;;19.60;78.90;;;;;;4936236;29;20130;-54
2021/08/08 12:19:02;;;;;;;10.18;3.33;;;19.80;79.10;;;;;;4938585;29;20047;-53
2021/08/08 12:21:36;;;;;;;11.15;3.47;;;19.90;77.80;;;;;;4940729;29;20520;-54
2021/08/08 12:24:12;;;;;;;14.80;3.15;;;20.00;76.30;;;;;;4947057;29;20464;-52
2021/08/08 12:26:41;;;;;;;12.02;3.10;;;20.00;75.70;;;;;;4952344;29;20082;-54
2021/08/08 12:29:07;;;;;;;12.02;3.75;;;19.90;75.40;;;;;;4947804;29;20500;-53
2021/08/08 12:31:38;;;;;;;11.07;3.40;;;19.90;75.10;;;;;;4951396;29;20039;-52
2021/08/08 12:34:05;;;;;;;9.88;3.15;;;19.90;76.50;;;;;;4947808;29;20128;-52
2021/08/08 12:36:39;;;;;;;20.75;3.63;;;20.10;77.70;;;;;;4950790;29;20094;-53
2021/08/08 12:39:05;;;;;;;12.68;3.30;;;20.30;76.90;;;;;;4952673;29;20053;-52
2021/08/08 12:41:36;;;;;;;8.90;3.20;;;20.40;74.00;;;;;;4951574;29;20047;-55